createdAt,value
2022-08-29T09:31:28.491Z,101092.50
2022-08-29T09:34:11.704Z,101099.41
2022-08-29T09:36:52.374Z,101110.63
2022-08-29T09:39:32.134Z,101116.69
2022-08-29T09:42:23.768Z,101117.31
2022-08-29T09:45:05.791Z,101125.22
2022-08-29T09:47:45.790Z,101111.38
2022-08-29T09:50:28.651Z,101108.44
2022-08-29T09:53:24.411Z,101107.44
2022-08-29T09:56:10.157Z,101108.44
2022-08-29T09:58:47.274Z,101111.72
2022-08-29T10:01:28.548Z,101111.31
2022-08-29T10:04:10.779Z,101125.31
2022-08-29T10:06:52.763Z,101117.31
2022-08-29T10:09:32.046Z,101130.44
2022-08-29T10:12:17.595Z,101123.31
2022-08-29T10:15:04.725Z,101134.44
2022-08-29T10:18:01.947Z,101115.00
2022-08-29T10:20:54.280Z,101113.13
2022-08-29T10:23:42.049Z,101125.00
2022-08-29T10:26:36.851Z,101111.25
2022-08-29T10:29:31.762Z,101116.44
2022-08-29T10:32:18.857Z,101113.81
2022-08-29T10:35:13.302Z,101114.22
2022-08-29T10:38:02.827Z,101117.41
2022-08-29T10:40:47.950Z,101124.34
2022-08-29T10:43:40.178Z,101127.53
2022-08-29T10:46:49.339Z,101130.06
2022-08-29T10:49:50.931Z,101131.97
2022-08-29T10:53:05.089Z,101127.34
2022-08-29T10:55:56.422Z,101119.09
2022-08-29T10:58:54.866Z,101141.78
2022-08-29T11:01:38.928Z,101142.09
2022-08-29T11:04:25.249Z,101155.28
2022-08-29T11:07:10.026Z,101151.56
2022-08-29T11:09:55.633Z,101150.94
2022-08-29T11:12:46.171Z,101158.38
2022-08-29T11:15:30.335Z,101154.53
2022-08-29T11:18:23.099Z,101151.41
2022-08-29T11:21:04.315Z,101137.56
2022-08-29T11:23:47.778Z,101136.00
2022-08-29T11:26:41.169Z,101132.41
2022-08-29T11:29:31.120Z,101137.41
2022-08-29T11:32:15.751Z,101152.03
2022-08-29T11:35:11.420Z,101139.44
2022-08-29T11:38:28.489Z,101135.72
2022-08-29T11:41:30.365Z,101139.06
2022-08-29T11:44:29.080Z,101131.19
2022-08-29T11:47:35.713Z,101133.72
2022-08-29T11:50:30.947Z,101127.34
2022-08-29T11:53:16.774Z,101133.16
2022-08-29T11:56:32.486Z,101124.22
2022-08-29T11:59:09.449Z,101119.19
2022-08-29T12:02:04.615Z,101119.22
2022-08-29T12:04:58.613Z,101116.75
2022-08-29T12:07:44.073Z,101121.34
2022-08-29T12:10:33.452Z,101121.75
2022-08-29T12:13:13.955Z,101121.66
2022-08-29T12:16:09.574Z,101133.88
2022-08-29T12:18:53.187Z,101130.50
2022-08-29T12:21:51.091Z,101139.69
2022-08-29T12:24:55.183Z,101143.28
2022-08-29T12:28:06.194Z,101144.34
2022-08-29T12:30:50.216Z,101134.63
2022-08-29T12:33:39.731Z,101141.84
2022-08-29T12:36:35.842Z,101138.16
2022-08-29T12:39:30.770Z,101138.50
2022-08-29T12:42:31.911Z,101136.25
2022-08-29T12:45:14.998Z,101155.97
2022-08-29T12:47:58.252Z,101173.69
2022-08-29T12:50:43.992Z,101188.84
2022-08-29T12:53:26.583Z,101187.03
2022-08-29T12:56:07.103Z,101191.47
2022-08-29T12:58:47.553Z,101194.88
2022-08-29T13:01:32.088Z,101194.31
2022-08-29T13:04:19.973Z,101195.41
2022-08-29T13:06:59.686Z,101188.03
2022-08-29T13:09:43.980Z,101169.44
2022-08-29T13:12:27.550Z,101174.69
2022-08-29T13:15:08.162Z,101170.09
2022-08-29T13:17:49.189Z,101173.19
